Cape York — VRXE9 — position and weather

sailwx.info

Track history (hours):
 
Tides and Currents Weather Stations Pressure Air Temp Water Temp Dewpoint Dewpoint Depression Visibility Wind Speed Wind Dir Waves Ship Positions

Cape York

Last reported at 2015-Jan-31 14:29 UTC. Time now 2015-Jan-31 14:45 UTC.
Position N 38°55' E 118°06'.

Length 170 m; draft 8 m.

Type: Cargo ship. MMSI: 477924000.

Date/timePositionNaut miles runAvg speedWind from/ knotsBaromVisibWave heightAir tempDewpointWater temp
2015-Jan-31 14:29N 38°55' E 118°06'8 8.7
2015-Jan-31 13:32N 38°57' E 117°56'9 9.3
2015-Jan-31 12:33N 38°59' E 117°45'1 0.6
2015-Jan-31 11:23N 38°59' E 117°44'0 0.0
2015-Jan-31 10:11N 38°59' E 117°44'0 0.0
2015-Jan-31 09:29N 38°59' E 117°44'0 0.0
2015-Jan-31 08:29N 38°59' E 117°44'0 0.0
2015-Jan-31 07:29N 38°59' E 117°44'0 0.0
2015-Jan-31 06:29N 38°59' E 117°44'0 0.0
2015-Jan-31 05:22N 38°59' E 117°44'0 0.0
2015-Jan-31 04:28N 38°59' E 117°44'0 0.0
2015-Jan-31 03:28N 38°59' E 117°44'0 0.0
2015-Jan-31 02:28N 38°59' E 117°44'0 0.0
2015-Jan-31 01:28N 38°59' E 117°44'0 0.0
2015-Jan-31 00:28N 38°59' E 117°44'0 0.0
2015-Jan-30 23:28N 38°59' E 117°44'0 0.0
2015-Jan-30 22:28N 38°59' E 117°44'0 0.0
2015-Jan-30 21:28N 38°59' E 117°44'0 0.0
2015-Jan-30 20:28N 38°59' E 117°44'0 0.0
2015-Jan-30 19:28N 38°59' E 117°44'0 0.0
2015-Jan-30 18:28N 38°59' E 117°44'0 0.0
2015-Jan-30 17:28N 38°59' E 117°44'0 0.0
2015-Jan-30 16:28N 38°59' E 117°44'0 0.0
2015-Jan-30 15:22N 38°59' E 117°44'0 0.0
2015-Jan-30 14:28N 38°59' E 117°44'0 0.0
2015-Jan-30 13:28N 38°59' E 117°44'0 0.0
2015-Jan-30 12:28N 38°59' E 117°44'0 0.0
2015-Jan-30 11:28N 38°59' E 117°44'0 0.0
2015-Jan-30 10:28N 38°59' E 117°44'0 0.0
2015-Jan-30 09:28N 38°59' E 117°44'0 0.0
2015-Jan-30 08:28N 38°59' E 117°44'0 0.0
2015-Jan-30 07:28N 38°59' E 117°44'0 0.0
2015-Jan-30 06:22N 38°59' E 117°44'0 0.0
2015-Jan-30 05:28N 38°59' E 117°44'0 0.0
2015-Jan-30 04:28N 38°59' E 117°44'0 0.0
2015-Jan-30 03:28N 38°59' E 117°44'0 0.0
2015-Jan-30 02:28N 38°59' E 117°44'0 0.0
2015-Jan-30 01:28N 38°59' E 117°44'0 0.0
2015-Jan-30 00:28N 38°59' E 117°44'0 0.5
2015-Jan-29 23:33N 38°59' E 117°44'8 8.1
2015-Jan-29 22:33N 38°57' E 117°54'10 0.3
2015-Jan-28 18:31N 38°56' E 118°07'0 0.0
2015-Jan-28 17:19N 38°56' E 118°07'  
2015-Jan-25 04:23N 38°56' E 118°07'0 0.0
2015-Jan-23 00:33N 38°56' E 118°07'0 0.0
2015-Jan-22 14:15N 38°56' E 118°07'0 0.0
2015-Jan-22 09:21N 38°56' E 118°07'  
Track history (hours):
 
Tides and Currents Weather Stations Pressure Air Temp Water Temp Dewpoint Dewpoint Depression Visibility Wind Speed Wind Dir Waves Ship Positions

Cape York

Last reported at 2015-Jan-31 14:29 UTC. Time now 2015-Jan-31 14:45 UTC.
Position N 38°55' E 118°06'.

Length 170 m; draft 8 m.

Type: Cargo ship. MMSI: 477924000.

Date/timePositionNaut miles runAvg speedWind from/ knotsBaromVisibWave heightAir tempDewpointWater temp
2015-Jan-31 14:29N 38°55' E 118°06'8 8.7
2015-Jan-31 13:32N 38°57' E 117°56'9 9.3
2015-Jan-31 12:33N 38°59' E 117°45'1 0.6
2015-Jan-31 11:23N 38°59' E 117°44'0 0.0
2015-Jan-31 10:11N 38°59' E 117°44'0 0.0
2015-Jan-31 09:29N 38°59' E 117°44'0 0.0
2015-Jan-31 08:29N 38°59' E 117°44'0 0.0
2015-Jan-31 07:29N 38°59' E 117°44'0 0.0
2015-Jan-31 06:29N 38°59' E 117°44'0 0.0
2015-Jan-31 05:22N 38°59' E 117°44'0 0.0
2015-Jan-31 04:28N 38°59' E 117°44'0 0.0
2015-Jan-31 03:28N 38°59' E 117°44'0 0.0
2015-Jan-31 02:28N 38°59' E 117°44'0 0.0
2015-Jan-31 01:28N 38°59' E 117°44'0 0.0
2015-Jan-31 00:28N 38°59' E 117°44'0 0.0
2015-Jan-30 23:28N 38°59' E 117°44'0 0.0
2015-Jan-30 22:28N 38°59' E 117°44'0 0.0
2015-Jan-30 21:28N 38°59' E 117°44'0 0.0
2015-Jan-30 20:28N 38°59' E 117°44'0 0.0
2015-Jan-30 19:28N 38°59' E 117°44'0 0.0
2015-Jan-30 18:28N 38°59' E 117°44'0 0.0
2015-Jan-30 17:28N 38°59' E 117°44'0 0.0
2015-Jan-30 16:28N 38°59' E 117°44'0 0.0
2015-Jan-30 15:22N 38°59' E 117°44'0 0.0
2015-Jan-30 14:28N 38°59' E 117°44'0 0.0
2015-Jan-30 13:28N 38°59' E 117°44'0 0.0
2015-Jan-30 12:28N 38°59' E 117°44'0 0.0
2015-Jan-30 11:28N 38°59' E 117°44'0 0.0
2015-Jan-30 10:28N 38°59' E 117°44'0 0.0
2015-Jan-30 09:28N 38°59' E 117°44'0 0.0
2015-Jan-30 08:28N 38°59' E 117°44'0 0.0
2015-Jan-30 07:28N 38°59' E 117°44'0 0.0
2015-Jan-30 06:22N 38°59' E 117°44'0 0.0
2015-Jan-30 05:28N 38°59' E 117°44'0 0.0
2015-Jan-30 04:28N 38°59' E 117°44'0 0.0
2015-Jan-30 03:28N 38°59' E 117°44'0 0.0
2015-Jan-30 02:28N 38°59' E 117°44'0 0.0
2015-Jan-30 01:28N 38°59' E 117°44'0 0.0
2015-Jan-30 00:28N 38°59' E 117°44'0 0.5
2015-Jan-29 23:33N 38°59' E 117°44'8 8.1
2015-Jan-29 22:33N 38°57' E 117°54'10 0.3
2015-Jan-28 18:31N 38°56' E 118°07'0 0.0
2015-Jan-28 17:19N 38°56' E 118°07'  
2015-Jan-25 04:23N 38°56' E 118°07'0 0.0
2015-Jan-23 00:33N 38°56' E 118°07'0 0.0
2015-Jan-22 14:15N 38°56' E 118°07'0 0.0
2015-Jan-22 09:21N 38°56' E 118°07'  

Dump ship's entire track history